createdAt,value
2023-04-18T00:00:17.296Z,5.57
2023-04-18T00:03:05.013Z,5.70
2023-04-18T00:05:32.726Z,5.47
2023-04-18T00:08:00.621Z,5.82
2023-04-18T00:10:28.198Z,5.38
2023-04-18T00:12:55.427Z,5.72
2023-04-18T00:15:22.889Z,5.20
2023-04-18T00:17:50.127Z,5.20
2023-04-18T00:20:17.919Z,5.32
2023-04-18T00:22:46.670Z,5.50
2023-04-18T00:25:14.905Z,5.47
2023-04-18T00:27:42.095Z,5.30
2023-04-18T00:30:10.044Z,5.57
2023-04-18T00:32:38.826Z,5.07
2023-04-18T00:35:06.987Z,5.25
2023-04-18T00:37:34.166Z,5.25
2023-04-18T00:40:01.728Z,5.13
2023-04-18T00:42:29.445Z,5.50
2023-04-18T00:44:56.993Z,5.05
2023-04-18T00:47:24.283Z,5.07
2023-04-18T00:49:52.552Z,4.80
2023-04-18T00:52:21.739Z,4.80
2023-04-18T00:54:49.844Z,5.32
2023-04-18T00:57:17.302Z,4.45
2023-04-18T00:59:46.566Z,5.10
2023-04-18T01:02:13.904Z,4.82
2023-04-18T01:04:43.927Z,5.05
2023-04-18T01:07:11.853Z,4.68
2023-04-18T01:09:40.382Z,4.93
2023-04-18T01:12:07.716Z,4.72
2023-04-18T01:14:35.320Z,5.07
2023-04-18T01:17:02.700Z,4.47
2023-04-18T01:19:30.352Z,4.38
2023-04-18T01:21:57.885Z,4.60
2023-04-18T01:24:26.800Z,4.35
2023-04-18T01:26:54.254Z,4.70
2023-04-18T01:29:21.795Z,4.45
2023-04-18T01:31:49.113Z,5.00
2023-04-18T01:34:19.968Z,4.43
2023-04-18T01:36:47.175Z,4.93
2023-04-18T01:39:15.426Z,4.55
2023-04-18T01:41:42.697Z,4.38
2023-04-18T01:44:10.325Z,4.90
2023-04-18T01:46:37.816Z,4.28
2023-04-18T01:49:05.883Z,4.68
2023-04-18T01:51:33.087Z,4.82
2023-04-18T01:54:00.589Z,4.20
2023-04-18T01:56:27.808Z,4.22
2023-04-18T01:58:55.332Z,4.20
2023-04-18T02:01:22.839Z,4.47
2023-04-18T02:03:50.749Z,4.13
2023-04-18T02:06:18.312Z,3.92
2023-04-18T02:08:46.018Z,4.22
2023-04-18T02:11:13.233Z,3.95
2023-04-18T02:13:40.795Z,4.13
2023-04-18T02:16:13.998Z,4.15
2023-04-18T02:18:43.489Z,3.95
2023-04-18T02:21:11.257Z,4.40
2023-04-18T02:23:38.829Z,4.30
2023-04-18T02:26:06.445Z,3.67
2023-04-18T02:28:34.186Z,3.78
2023-04-18T02:31:01.525Z,3.92
2023-04-18T02:33:29.723Z,4.10
2023-04-18T02:35:56.956Z,4.03
2023-04-18T02:38:24.456Z,4.45
2023-04-18T02:40:51.927Z,3.60
2023-04-18T02:43:19.357Z,3.95
2023-04-18T02:45:46.562Z,3.50
2023-04-18T02:48:14.081Z,4.30
2023-04-18T02:50:41.359Z,4.30
2023-04-18T02:53:08.965Z,3.88
2023-04-18T02:55:37.303Z,3.97
2023-04-18T02:58:04.911Z,3.88
2023-04-18T03:00:32.142Z,3.78
2023-04-18T03:02:59.867Z,3.47
2023-04-18T03:05:27.394Z,3.83
2023-04-18T03:07:54.894Z,3.38
2023-04-18T03:10:22.188Z,3.72
2023-04-18T03:12:50.360Z,3.50
2023-04-18T03:15:17.683Z,3.60
2023-04-18T03:17:45.213Z,3.88
2023-04-18T03:20:12.765Z,3.78
2023-04-18T03:22:40.807Z,3.50
2023-04-18T03:25:08.494Z,3.67
2023-04-18T03:27:35.993Z,3.70
2023-04-18T03:30:03.805Z,3.58
2023-04-18T03:32:33.890Z,3.47
2023-04-18T03:35:01.269Z,3.28
2023-04-18T03:37:29.198Z,3.63
2023-04-18T03:39:56.487Z,3.35
2023-04-18T03:42:24.146Z,3.33
2023-04-18T03:44:51.350Z,3.47
2023-04-18T03:47:18.909Z,3.55
2023-04-18T03:49:46.158Z,3.08
2023-04-18T03:52:13.671Z,3.33
2023-04-18T03:54:40.936Z,3.53
2023-04-18T03:57:08.404Z,3.30
2023-04-18T03:59:35.891Z,3.53
2023-04-18T04:02:03.461Z,3.30
2023-04-18T04:04:30.955Z,3.50
2023-04-18T04:06:58.829Z,3.25
2023-04-18T04:09:26.317Z,3.20
2023-04-18T04:11:53.896Z,3.20
2023-04-18T04:14:22.673Z,3.58
2023-04-18T04:16:51.152Z,3.38
2023-04-18T04:19:18.423Z,4.22
2023-04-18T04:21:46.261Z,3.17
2023-04-18T04:24:13.923Z,3.55
2023-04-18T04:26:43.222Z,3.88
2023-04-18T04:29:10.796Z,3.33
2023-04-18T04:31:38.368Z,3.70
2023-04-18T04:34:06.251Z,3.30
2023-04-18T04:36:33.740Z,3.42
2023-04-18T04:39:03.534Z,3.50
2023-04-18T04:41:31.658Z,3.72
2023-04-18T04:43:59.573Z,3.33
2023-04-18T04:46:30.248Z,3.40
2023-04-18T04:48:57.577Z,3.38
2023-04-18T04:51:25.774Z,3.63
2023-04-18T04:53:53.040Z,3.67
2023-04-18T04:56:20.611Z,3.45
2023-04-18T04:58:47.789Z,3.53
2023-04-18T05:01:16.785Z,3.58
2023-04-18T05:03:44.277Z,4.35
2023-04-18T05:06:12.500Z,4.03
2023-04-18T05:08:39.870Z,6.63
2023-04-18T05:11:07.408Z,5.95
2023-04-18T05:13:35.136Z,6.43
2023-04-18T05:16:02.843Z,5.90
2023-04-18T05:18:34.357Z,6.30
2023-04-18T05:21:02.912Z,7.20
2023-04-18T05:23:30.498Z,7.10
2023-04-18T05:25:58.076Z,6.60
2023-04-18T05:28:27.059Z,6.60
2023-04-18T05:31:01.078Z,6.97
2023-04-18T05:33:31.659Z,6.65
2023-04-18T05:35:59.595Z,6.80
2023-04-18T05:38:26.905Z,7.47
2023-04-18T05:40:55.817Z,7.75
2023-04-18T05:43:23.404Z,7.13
2023-04-18T05:45:52.615Z,7.10
2023-04-18T05:48:21.332Z,6.72
2023-04-18T05:50:49.053Z,7.75
2023-04-18T05:53:16.247Z,7.03
2023-04-18T05:55:46.293Z,7.13
2023-04-18T05:58:13.523Z,6.97
2023-04-18T06:00:42.791Z,6.88
2023-04-18T06:03:11.335Z,6.70
2023-04-18T06:05:40.956Z,6.50
2023-04-18T06:08:08.246Z,6.57
2023-04-18T06:10:37.731Z,6.95
2023-04-18T06:13:07.019Z,6.47
2023-04-18T06:15:34.920Z,6.95
2023-04-18T06:18:02.438Z,6.63
2023-04-18T06:20:30.091Z,6.88
2023-04-18T06:22:57.327Z,6.80
2023-04-18T06:25:25.070Z,6.30
2023-04-18T06:27:52.313Z,7.05
2023-04-18T06:30:21.879Z,6.53
2023-04-18T06:32:49.461Z,6.55
2023-04-18T06:35:17.413Z,6.45
2023-04-18T06:37:45.396Z,6.22
2023-04-18T06:40:13.158Z,6.65
2023-04-18T06:42:41.748Z,6.07
2023-04-18T06:45:11.855Z,6.00
2023-04-18T06:47:40.478Z,6.05
2023-04-18T06:50:08.645Z,6.13
2023-04-18T06:52:40.436Z,5.78
2023-04-18T06:55:09.251Z,6.20
2023-04-18T06:57:37.192Z,5.88
2023-04-18T07:00:05.590Z,5.65
2023-04-18T07:02:33.135Z,6.13
2023-04-18T07:05:00.670Z,5.78
2023-04-18T07:07:28.116Z,5.63
2023-04-18T07:09:55.648Z,5.53
2023-04-18T07:12:22.955Z,6.10
2023-04-18T07:14:52.125Z,5.75
2023-04-18T07:17:19.382Z,5.63
2023-04-18T07:19:46.956Z,5.75
2023-04-18T07:22:14.449Z,5.78
2023-04-18T07:24:42.213Z,5.80
2023-04-18T07:27:09.647Z,5.50
2023-04-18T07:29:37.220Z,5.60
2023-04-18T07:32:06.148Z,5.82
2023-04-18T07:34:36.155Z,5.55
2023-04-18T07:37:03.605Z,5.70
2023-04-18T07:39:35.741Z,5.90
2023-04-18T07:42:06.497Z,5.85
2023-04-18T07:44:35.603Z,5.75
2023-04-18T07:47:03.582Z,5.47
2023-04-18T07:49:31.252Z,5.68
2023-04-18T07:51:59.034Z,5.45
2023-04-18T07:54:26.575Z,5.30
2023-04-18T07:56:54.065Z,5.38
2023-04-18T07:59:21.540Z,5.90
2023-04-18T08:01:48.812Z,5.57
2023-04-18T08:04:16.534Z,5.47
2023-04-18T08:06:43.991Z,5.43
2023-04-18T08:09:12.437Z,5.53
2023-04-18T08:11:42.284Z,5.43
2023-04-18T08:14:09.883Z,5.40
2023-04-18T08:16:37.423Z,5.35
2023-04-18T08:19:06.175Z,5.43
2023-04-18T08:21:33.442Z,4.80
2023-04-18T08:24:00.952Z,5.63
2023-04-18T08:26:28.185Z,5.20
2023-04-18T08:28:56.280Z,4.80
2023-04-18T08:31:23.658Z,5.20
2023-04-18T08:33:51.291Z,4.80
2023-04-18T08:36:18.549Z,5.43
2023-04-18T08:38:46.648Z,5.18
2023-04-18T08:41:18.479Z,4.97
2023-04-18T08:43:48.922Z,4.82
2023-04-18T08:46:17.246Z,5.07
2023-04-18T08:48:45.043Z,5.20
2023-04-18T08:51:12.250Z,5.00
2023-04-18T08:53:39.799Z,5.20
2023-04-18T08:56:10.579Z,4.90
2023-04-18T08:58:38.960Z,4.88
2023-04-18T09:01:07.229Z,4.65
2023-04-18T09:03:42.479Z,4.80
2023-04-18T09:08:37.284Z,4.63
2023-04-18T09:11:25.901Z,5.07
2023-04-18T09:13:55.917Z,5.20
2023-04-18T09:16:23.639Z,4.93
2023-04-18T09:19:12.080Z,5.25
2023-04-18T09:21:42.267Z,5.07
2023-04-18T09:24:29.385Z,4.72
2023-04-18T09:26:58.683Z,4.90
2023-04-18T09:29:47.455Z,4.97
2023-04-18T09:32:26.912Z,4.97
2023-04-18T09:34:59.754Z,4.53
2023-04-18T09:37:29.116Z,4.75
2023-04-18T09:39:56.763Z,4.57
2023-04-18T09:42:25.056Z,4.55
2023-04-18T09:45:06.215Z,4.97
2023-04-18T09:47:35.144Z,4.88
2023-04-18T09:50:08.773Z,5.00
2023-04-18T09:52:41.324Z,4.82
2023-04-18T09:55:11.635Z,4.85
2023-04-18T09:57:42.684Z,5.32
2023-04-18T10:00:17.781Z,4.95
2023-04-18T10:02:52.502Z,4.72
2023-04-18T10:07:50.844Z,4.70
2023-04-18T10:10:18.631Z,5.07
2023-04-18T10:12:48.080Z,4.32
2023-04-18T10:15:17.021Z,4.70
2023-04-18T10:20:27.512Z,4.85
2023-04-18T10:22:55.994Z,4.85
2023-04-18T10:25:38.336Z,4.72
2023-04-18T10:28:06.977Z,4.75
2023-04-18T10:30:56.238Z,4.18
2023-04-18T10:33:30.332Z,4.50
2023-04-18T10:36:20.138Z,4.45
2023-04-18T10:38:50.599Z,4.50
2023-04-18T10:41:21.634Z,4.35
2023-04-18T10:44:08.407Z,4.60
2023-04-18T10:46:41.051Z,4.35
2023-04-18T10:49:21.956Z,4.25
2023-04-18T10:51:58.908Z,4.40
2023-04-18T10:54:51.051Z,4.30
2023-04-18T10:57:18.614Z,4.18
2023-04-18T10:59:51.538Z,4.28
2023-04-18T11:02:30.147Z,4.55
2023-04-18T11:05:06.837Z,4.18
2023-04-18T11:07:49.045Z,4.22
2023-04-18T11:10:27.085Z,3.97
2023-04-18T11:12:55.418Z,4.07
2023-04-18T11:15:25.224Z,4.25
2023-04-18T11:18:01.340Z,4.10
2023-04-18T11:20:30.440Z,4.22
2023-04-18T11:22:59.801Z,4.25
2023-04-18T11:25:34.405Z,3.97
2023-04-18T11:30:38.013Z,4.10
2023-04-18T11:33:09.886Z,4.05
2023-04-18T11:35:38.357Z,3.92
2023-04-18T11:38:07.085Z,3.83
2023-04-18T11:40:35.538Z,4.25
2023-04-18T11:43:05.777Z,4.15
2023-04-18T11:45:33.220Z,3.65
2023-04-18T11:48:01.253Z,4.05
2023-04-18T11:50:28.587Z,3.67
2023-04-18T11:52:56.176Z,3.75
2023-04-18T11:55:25.412Z,3.80
2023-04-18T11:58:01.338Z,4.43
2023-04-18T12:00:37.422Z,3.88
2023-04-18T12:03:22.530Z,3.60
2023-04-18T12:05:59.710Z,3.83
2023-04-18T12:08:27.418Z,4.10
2023-04-18T12:10:55.365Z,4.22
2023-04-18T12:13:31.271Z,3.45
2023-04-18T12:16:02.003Z,3.90
2023-04-18T12:18:29.861Z,3.60
2023-04-18T12:20:58.592Z,3.75
2023-04-18T12:23:37.110Z,3.47
2023-04-18T12:26:18.140Z,3.40
2023-04-18T12:28:46.685Z,3.20
2023-04-18T12:31:13.938Z,3.72
2023-04-18T12:33:41.428Z,3.78
2023-04-18T12:36:09.785Z,3.50
2023-04-18T12:38:37.318Z,3.67
2023-04-18T12:41:05.401Z,3.67
2023-04-18T12:43:32.930Z,3.42
2023-04-18T12:46:01.193Z,3.42
2023-04-18T12:48:28.733Z,3.65
2023-04-18T12:50:55.953Z,3.70
2023-04-18T12:53:23.460Z,3.70
2023-04-18T12:55:50.900Z,3.40
2023-04-18T12:58:18.769Z,3.40
2023-04-18T13:00:46.380Z,3.53
2023-04-18T13:03:14.719Z,3.80
2023-04-18T13:05:42.170Z,3.17
2023-04-18T13:08:17.102Z,3.67
2023-04-18T13:10:47.349Z,3.42
2023-04-18T13:13:15.470Z,3.33
2023-04-18T13:15:42.844Z,3.22
2023-04-18T13:18:10.361Z,3.40
2023-04-18T13:20:37.667Z,3.70
2023-04-18T13:23:05.335Z,3.20
2023-04-18T13:25:32.604Z,3.28
2023-04-18T13:28:01.177Z,3.50
2023-04-18T13:30:29.170Z,3.42
2023-04-18T13:32:56.929Z,3.25
2023-04-18T13:35:24.687Z,3.40
2023-04-18T13:37:52.392Z,3.22
2023-04-18T13:40:19.860Z,3.42
2023-04-18T13:42:47.369Z,3.80
2023-04-18T13:45:14.604Z,3.08
2023-04-18T13:47:42.742Z,3.22
2023-04-18T13:50:10.843Z,3.28
2023-04-18T13:52:38.361Z,3.20
2023-04-18T13:55:06.185Z,3.20
2023-04-18T13:57:34.307Z,3.15
2023-04-18T14:00:01.620Z,3.10
2023-04-18T14:02:29.316Z,3.40
2023-04-18T14:04:58.270Z,3.30
2023-04-18T14:07:26.042Z,2.90
2023-04-18T14:09:54.049Z,3.05
2023-04-18T14:12:22.363Z,3.00
2023-04-18T14:14:50.558Z,3.42
2023-04-18T14:17:18.136Z,3.72
2023-04-18T14:19:45.356Z,3.40
2023-04-18T14:22:12.823Z,3.10
2023-04-18T14:24:40.159Z,3.30
2023-04-18T14:27:07.745Z,3.03
2023-04-18T14:29:35.493Z,3.10
2023-04-18T14:32:03.030Z,3.10
2023-04-18T14:34:31.983Z,3.40
2023-04-18T14:37:01.185Z,3.13
2023-04-18T14:39:28.509Z,3.13
2023-04-18T14:41:56.015Z,2.92
2023-04-18T14:44:23.209Z,3.00
2023-04-18T14:46:50.794Z,3.20
2023-04-18T14:49:18.210Z,3.40
2023-04-18T14:51:45.752Z,3.00
2023-04-18T14:54:13.060Z,2.97
2023-04-18T14:56:40.530Z,3.03
2023-04-18T14:59:07.811Z,3.20
2023-04-18T15:01:35.401Z,3.10
2023-04-18T15:04:04.374Z,3.25
2023-04-18T15:06:32.592Z,3.10
2023-04-18T15:08:59.918Z,3.03
2023-04-18T15:11:27.485Z,2.90
2023-04-18T15:13:54.772Z,3.42
2023-04-18T15:16:22.323Z,3.33
2023-04-18T15:18:49.964Z,3.30
2023-04-18T15:21:17.464Z,3.30
2023-04-18T15:23:44.739Z,3.00
2023-04-18T15:26:12.286Z,3.13
2023-04-18T15:28:39.644Z,3.30
2023-04-18T15:31:07.619Z,3.35
2023-04-18T15:33:35.083Z,3.60
2023-04-18T15:36:02.715Z,3.80
2023-04-18T15:38:31.595Z,3.78
2023-04-18T15:41:00.523Z,3.63
2023-04-18T15:43:27.751Z,4.03
2023-04-18T15:45:55.377Z,3.90
2023-04-18T15:48:22.645Z,4.05
2023-04-18T15:50:53.240Z,3.85
2023-04-18T15:53:20.644Z,4.20
2023-04-18T15:55:48.148Z,4.03
2023-04-18T15:58:15.492Z,4.07
2023-04-18T16:00:44.304Z,4.03
2023-04-18T16:03:21.414Z,4.00
2023-04-18T16:05:49.564Z,4.00
2023-04-18T16:08:17.107Z,4.13
2023-04-18T16:10:44.840Z,3.70
2023-04-18T16:13:12.087Z,3.60
2023-04-18T16:15:41.598Z,3.80
2023-04-18T16:18:09.122Z,4.13
2023-04-18T16:20:37.125Z,4.03
2023-04-18T16:23:04.322Z,4.00
2023-04-18T16:25:31.865Z,4.22
2023-04-18T16:27:59.179Z,4.20
2023-04-18T16:30:26.695Z,3.50
2023-04-18T16:32:54.434Z,4.00
2023-04-18T16:35:22.062Z,3.88
2023-04-18T16:37:49.303Z,3.97
2023-04-18T16:40:17.035Z,3.95
2023-04-18T16:42:44.342Z,3.95
2023-04-18T16:45:11.840Z,3.90
2023-04-18T16:47:39.208Z,4.57
2023-04-18T16:50:07.438Z,4.05
2023-04-18T16:52:34.924Z,4.50
2023-04-18T16:55:02.562Z,4.05
2023-04-18T16:57:29.783Z,3.83
2023-04-18T16:59:58.213Z,4.05
2023-04-18T17:02:25.700Z,4.18
2023-04-18T17:04:53.561Z,4.10
2023-04-18T17:07:20.919Z,4.00
2023-04-18T17:09:48.424Z,4.10
2023-04-18T17:12:16.032Z,4.32
2023-04-18T17:14:43.504Z,4.40
2023-04-18T17:17:10.849Z,4.32
2023-04-18T17:19:39.108Z,4.68
2023-04-18T17:22:06.617Z,4.40
2023-04-18T17:24:34.167Z,4.32
2023-04-18T17:27:02.309Z,4.57
2023-04-18T17:29:29.897Z,4.50
2023-04-18T17:31:58.273Z,4.35
2023-04-18T17:34:26.912Z,4.43
2023-04-18T17:36:54.275Z,4.75
2023-04-18T17:39:22.585Z,4.90
2023-04-18T17:41:49.990Z,4.20
2023-04-18T17:44:17.602Z,4.95
2023-04-18T17:46:44.794Z,4.82
2023-04-18T17:49:12.549Z,4.35
2023-04-18T17:51:40.300Z,4.57
2023-04-18T17:54:08.252Z,4.70
2023-04-18T17:56:35.744Z,4.70
2023-04-18T17:59:03.628Z,4.75
2023-04-18T18:01:31.370Z,4.65
2023-04-18T18:03:59.310Z,5.05
2023-04-18T18:06:27.863Z,4.70
2023-04-18T18:08:55.934Z,4.53
2023-04-18T18:11:23.732Z,5.22
2023-04-18T18:13:54.539Z,5.13
2023-04-18T18:16:23.036Z,5.63
2023-04-18T18:18:51.037Z,5.25
2023-04-18T18:21:18.571Z,5.18
2023-04-18T18:23:46.352Z,4.90
2023-04-18T18:26:13.748Z,5.05
2023-04-18T18:28:41.499Z,5.63
2023-04-18T18:31:09.016Z,5.18
2023-04-18T18:33:36.769Z,5.03
2023-04-18T18:36:04.452Z,5.00
2023-04-18T18:38:32.132Z,4.80
2023-04-18T18:41:01.675Z,5.45
2023-04-18T18:43:30.970Z,5.13
2023-04-18T18:45:58.449Z,5.47
2023-04-18T18:48:29.296Z,5.13
2023-04-18T18:50:57.269Z,5.50
2023-04-18T18:53:27.055Z,5.05
2023-04-18T18:55:55.580Z,5.10
2023-04-18T18:58:23.419Z,5.00
2023-04-18T19:00:51.186Z,5.63
2023-04-18T19:03:21.228Z,5.20
2023-04-18T19:05:49.001Z,4.75
2023-04-18T19:08:16.555Z,4.90
2023-04-18T19:10:43.925Z,5.60
2023-04-18T19:13:11.585Z,5.18
2023-04-18T19:15:38.986Z,4.63
2023-04-18T19:18:07.017Z,5.35
2023-04-18T19:20:35.254Z,4.97
2023-04-18T19:23:02.802Z,5.10
2023-04-18T19:25:30.280Z,5.07
2023-04-18T19:27:58.008Z,5.18
2023-04-18T19:30:25.381Z,4.30
2023-04-18T19:32:53.238Z,4.70
2023-04-18T19:35:20.696Z,4.95
2023-04-18T19:37:48.238Z,4.78
2023-04-18T19:40:15.497Z,5.25
2023-04-18T19:42:43.129Z,4.93
2023-04-18T19:45:12.030Z,5.15
2023-04-18T19:47:39.624Z,4.63
2023-04-18T19:50:07.968Z,5.55
2023-04-18T19:52:35.660Z,4.70
2023-04-18T19:55:03.053Z,4.65
2023-04-18T19:57:30.857Z,4.40
2023-04-18T19:59:58.043Z,4.93
2023-04-18T20:02:25.603Z,4.72
2023-04-18T20:04:53.284Z,4.78
2023-04-18T20:07:22.394Z,5.00
2023-04-18T20:09:52.671Z,4.80
2023-04-18T20:12:20.445Z,4.82
2023-04-18T20:14:47.758Z,4.70
2023-04-18T20:17:15.482Z,5.03
2023-04-18T20:19:42.893Z,4.43
2023-04-18T20:22:10.427Z,4.70
2023-04-18T20:24:39.309Z,4.65
2023-04-18T20:27:06.983Z,5.00
2023-04-18T20:29:34.281Z,4.60
2023-04-18T20:32:01.844Z,4.80
2023-04-18T20:34:29.044Z,5.20
2023-04-18T20:36:57.847Z,4.60
2023-04-18T20:39:25.214Z,4.40
2023-04-18T20:41:54.195Z,4.55
2023-04-18T20:44:22.112Z,5.07
2023-04-18T20:46:49.761Z,5.25
2023-04-18T20:49:17.114Z,4.72
2023-04-18T20:51:45.114Z,4.70
2023-04-18T20:54:12.747Z,4.63
2023-04-18T20:56:40.600Z,4.95
2023-04-18T20:59:07.905Z,4.40
2023-04-18T21:01:37.036Z,4.70
2023-04-18T21:04:05.169Z,4.85
2023-04-18T21:06:32.903Z,4.38
2023-04-18T21:09:00.199Z,5.15
2023-04-18T21:11:27.795Z,4.22
2023-04-18T21:13:55.112Z,4.30
2023-04-18T21:16:23.878Z,4.63
2023-04-18T21:18:51.230Z,4.32
2023-04-18T21:21:18.771Z,4.57
2023-04-18T21:23:46.350Z,4.53
2023-04-18T21:26:13.988Z,4.53
2023-04-18T21:28:56.580Z,4.45
2023-04-18T21:31:25.526Z,4.68
2023-04-18T21:33:57.118Z,4.22
2023-04-18T21:36:30.640Z,4.45
2023-04-18T21:39:00.993Z,4.50
2023-04-18T21:41:29.766Z,4.80
2023-04-18T21:43:57.039Z,4.78
2023-04-18T21:46:24.901Z,5.18
2023-04-18T21:48:52.188Z,4.80
2023-04-18T21:51:19.763Z,4.68
2023-04-18T21:53:47.548Z,4.72
2023-04-18T21:56:15.185Z,4.95
2023-04-18T21:58:43.288Z,4.75
2023-04-18T22:01:10.932Z,4.63
2023-04-18T22:03:38.331Z,4.50
2023-04-18T22:06:06.101Z,4.43
2023-04-18T22:08:33.863Z,5.00
2023-04-18T22:11:01.630Z,4.85
2023-04-18T22:13:33.133Z,4.82
2023-04-18T22:16:03.340Z,4.55
2023-04-18T22:18:37.583Z,4.78
2023-04-18T22:21:06.100Z,4.82
2023-04-18T22:23:33.364Z,4.90
2023-04-18T22:26:01.261Z,4.35
2023-04-18T22:28:28.777Z,5.18
2023-04-18T22:30:56.705Z,5.00
2023-04-18T22:33:24.268Z,4.60
2023-04-18T22:35:52.292Z,5.03
2023-04-18T22:38:19.601Z,4.70
2023-04-18T22:40:47.129Z,4.63
2023-04-18T22:43:14.677Z,4.78
2023-04-18T22:45:42.192Z,4.80
2023-04-18T22:48:12.183Z,4.72
2023-04-18T22:50:42.808Z,4.88
2023-04-18T22:53:11.109Z,4.78
2023-04-18T22:55:43.058Z,4.80
2023-04-18T22:58:11.553Z,5.07
2023-04-18T23:00:39.047Z,4.70
2023-04-18T23:03:06.505Z,4.80
2023-04-18T23:05:34.338Z,4.68
2023-04-18T23:08:01.664Z,4.95
2023-04-18T23:10:29.560Z,5.13
2023-04-18T23:12:57.055Z,5.55
2023-04-18T23:15:26.272Z,5.07
2023-04-18T23:17:54.016Z,5.28
2023-04-18T23:20:22.174Z,5.15
2023-04-18T23:22:51.517Z,5.22
2023-04-18T23:25:19.774Z,5.10
2023-04-18T23:27:47.798Z,5.22
2023-04-18T23:30:15.431Z,4.82
2023-04-18T23:32:42.803Z,5.18
2023-04-18T23:35:11.577Z,5.45
2023-04-18T23:37:38.972Z,4.75
2023-04-18T23:40:07.964Z,5.13
2023-04-18T23:42:36.196Z,5.00
2023-04-18T23:45:04.133Z,5.03
2023-04-18T23:47:31.607Z,5.47
2023-04-18T23:49:59.270Z,4.57
2023-04-18T23:52:26.581Z,4.68
2023-04-18T23:54:54.148Z,5.32
2023-04-18T23:57:21.453Z,4.50
2023-04-18T23:59:48.928Z,5.03
